sensor_id;sensor_type;location;lat;lon;timestamp;P1;durP1;ratioP1;P2;durP2;ratioP2
140;SDS011;65;48.778;9.160;2023-12-22T00:01:09;7.13;;;0.82;;
140;SDS011;65;48.778;9.160;2023-12-22T00:03:57;6.88;;;0.60;;
140;SDS011;65;48.778;9.160;2023-12-22T00:06:42;5.60;;;0.88;;
140;SDS011;65;48.778;9.160;2023-12-22T00:09:28;1.75;;;0.50;;
140;SDS011;65;48.778;9.160;2023-12-22T00:12:14;2.45;;;0.93;;
140;SDS011;65;48.778;9.160;2023-12-22T00:15:00;1.40;;;0.45;;
140;SDS011;65;48.778;9.160;2023-12-22T00:17:45;2.40;;;0.63;;
140;SDS011;65;48.778;9.160;2023-12-22T00:20:31;1.52;;;0.95;;
140;SDS011;65;48.778;9.160;2023-12-22T00:23:17;2.40;;;1.10;;
140;SDS011;65;48.778;9.160;2023-12-22T00:26:03;8.15;;;1.35;;
140;SDS011;65;48.778;9.160;2023-12-22T00:28:50;1.33;;;0.75;;
140;SDS011;65;48.778;9.160;2023-12-22T00:31:36;2.15;;;0.85;;
140;SDS011;65;48.778;9.160;2023-12-22T00:34:22;1.42;;;0.55;;
140;SDS011;65;48.778;9.160;2023-12-22T00:37:08;1.40;;;0.75;;
140;SDS011;65;48.778;9.160;2023-12-22T00:39:53;1.60;;;0.98;;
140;SDS011;65;48.778;9.160;2023-12-22T00:42:39;1.58;;;0.80;;
140;SDS011;65;48.778;9.160;2023-12-22T00:45:25;3.67;;;1.08;;
140;SDS011;65;48.778;9.160;2023-12-22T00:48:11;6.18;;;1.15;;
140;SDS011;65;48.778;9.160;2023-12-22T00:50:57;1.48;;;0.80;;
140;SDS011;65;48.778;9.160;2023-12-22T00:53:42;7.78;;;1.38;;
140;SDS011;65;48.778;9.160;2023-12-22T00:56:29;0.65;;;0.50;;
140;SDS011;65;48.778;9.160;2023-12-22T00:59:14;1.45;;;0.52;;
140;SDS011;65;48.778;9.160;2023-12-22T01:02:00;4.90;;;0.52;;
140;SDS011;65;48.778;9.160;2023-12-22T01:04:46;2.33;;;0.95;;
140;SDS011;65;48.778;9.160;2023-12-22T01:07:32;1.13;;;0.70;;
140;SDS011;65;48.778;9.160;2023-12-22T01:10:17;0.52;;;0.47;;
140;SDS011;65;48.778;9.160;2023-12-22T01:13:03;1.85;;;0.65;;
140;SDS011;65;48.778;9.160;2023-12-22T01:15:49;2.30;;;0.70;;
140;SDS011;65;48.778;9.160;2023-12-22T01:18:35;3.83;;;1.23;;
140;SDS011;65;48.778;9.160;2023-12-22T01:21:20;1.02;;;0.55;;
140;SDS011;65;48.778;9.160;2023-12-22T01:24:06;3.95;;;1.10;;
140;SDS011;65;48.778;9.160;2023-12-22T01:26:52;2.13;;;1.00;;
140;SDS011;65;48.778;9.160;2023-12-22T01:29:38;3.75;;;1.08;;
140;SDS011;65;48.778;9.160;2023-12-22T01:32:24;8.77;;;1.30;;
140;SDS011;65;48.778;9.160;2023-12-22T01:35:10;0.90;;;0.70;;
140;SDS011;65;48.778;9.160;2023-12-22T01:37:55;1.60;;;0.75;;
140;SDS011;65;48.778;9.160;2023-12-22T01:40:42;2.58;;;0.73;;
140;SDS011;65;48.778;9.160;2023-12-22T01:43:28;3.05;;;0.70;;
140;SDS011;65;48.778;9.160;2023-12-22T01:46:14;0.45;;;0.30;;
140;SDS011;65;48.778;9.160;2023-12-22T01:49:00;1.17;;;0.57;;
140;SDS011;65;48.778;9.160;2023-12-22T01:51:47;0.38;;;0.35;;
140;SDS011;65;48.778;9.160;2023-12-22T01:54:34;2.10;;;0.47;;
140;SDS011;65;48.778;9.160;2023-12-22T01:57:21;0.15;;;0.15;;
140;SDS011;65;48.778;9.160;2023-12-22T02:00:08;1.00;;;0.40;;
140;SDS011;65;48.778;9.160;2023-12-22T02:02:54;2.45;;;0.20;;
140;SDS011;65;48.778;9.160;2023-12-22T02:05:46;0.20;;;0.10;;
140;SDS011;65;48.778;9.160;2023-12-22T02:08:32;0.75;;;0.45;;
140;SDS011;65;48.778;9.160;2023-12-22T02:11:18;0.60;;;0.30;;
140;SDS011;65;48.778;9.160;2023-12-22T02:14:04;0.35;;;0.35;;
140;SDS011;65;48.778;9.160;2023-12-22T02:16:52;0.90;;;0.10;;
140;SDS011;65;48.778;9.160;2023-12-22T02:19:43;0.40;;;0.20;;
140;SDS011;65;48.778;9.160;2023-12-22T02:22:31;1.85;;;0.50;;
140;SDS011;65;48.778;9.160;2023-12-22T02:25:17;3.00;;;0.28;;
140;SDS011;65;48.778;9.160;2023-12-22T02:28:10;1.30;;;0.35;;
140;SDS011;65;48.778;9.160;2023-12-22T02:31:33;0.10;;;0.10;;
140;SDS011;65;48.778;9.160;2023-12-22T02:34:21;0.90;;;0.17;;
140;SDS011;65;48.778;9.160;2023-12-22T02:37:08;0.28;;;0.28;;
140;SDS011;65;48.778;9.160;2023-12-22T02:39:56;0.75;;;0.30;;
140;SDS011;65;48.778;9.160;2023-12-22T02:42:42;1.77;;;0.63;;
140;SDS011;65;48.778;9.160;2023-12-22T02:45:30;0.65;;;0.22;;
140;SDS011;65;48.778;9.160;2023-12-22T02:48:17;1.15;;;0.50;;
140;SDS011;65;48.778;9.160;2023-12-22T02:51:03;2.10;;;0.57;;
140;SDS011;65;48.778;9.160;2023-12-22T02:53:50;0.82;;;0.28;;
140;SDS011;65;48.778;9.160;2023-12-22T02:56:36;2.17;;;0.57;;
140;SDS011;65;48.778;9.160;2023-12-22T02:59:21;3.38;;;0.68;;
140;SDS011;65;48.778;9.160;2023-12-22T03:02:07;0.93;;;0.55;;
140;SDS011;65;48.778;9.160;2023-12-22T03:04:53;2.17;;;0.80;;
140;SDS011;65;48.778;9.160;2023-12-22T03:07:39;1.73;;;0.70;;
140;SDS011;65;48.778;9.160;2023-12-22T03:10:24;2.30;;;0.60;;
140;SDS011;65;48.778;9.160;2023-12-22T03:13:10;3.47;;;1.23;;
140;SDS011;65;48.778;9.160;2023-12-22T03:15:56;2.25;;;0.60;;
140;SDS011;65;48.778;9.160;2023-12-22T03:18:42;2.45;;;0.50;;
140;SDS011;65;48.778;9.160;2023-12-22T03:21:27;2.40;;;0.68;;
140;SDS011;65;48.778;9.160;2023-12-22T03:24:13;2.78;;;0.65;;
140;SDS011;65;48.778;9.160;2023-12-22T03:26:59;1.40;;;0.45;;
140;SDS011;65;48.778;9.160;2023-12-22T03:29:45;0.70;;;0.52;;
140;SDS011;65;48.778;9.160;2023-12-22T03:32:31;1.40;;;0.57;;
140;SDS011;65;48.778;9.160;2023-12-22T03:35:16;1.15;;;0.40;;
140;SDS011;65;48.778;9.160;2023-12-22T03:38:02;2.08;;;0.65;;
140;SDS011;65;48.778;9.160;2023-12-22T03:40:48;1.02;;;0.47;;
140;SDS011;65;48.778;9.160;2023-12-22T03:43:34;1.50;;;0.50;;
140;SDS011;65;48.778;9.160;2023-12-22T03:46:20;3.83;;;0.60;;
140;SDS011;65;48.778;9.160;2023-12-22T03:49:06;1.65;;;0.50;;
140;SDS011;65;48.778;9.160;2023-12-22T03:51:51;3.00;;;0.75;;
140;SDS011;65;48.778;9.160;2023-12-22T03:54:37;0.32;;;0.25;;
140;SDS011;65;48.778;9.160;2023-12-22T03:57:23;6.68;;;0.38;;
140;SDS011;65;48.778;9.160;2023-12-22T04:00:09;2.85;;;0.80;;
140;SDS011;65;48.778;9.160;2023-12-22T04:02:55;4.32;;;0.63;;
140;SDS011;65;48.778;9.160;2023-12-22T04:05:40;0.98;;;0.50;;
140;SDS011;65;48.778;9.160;2023-12-22T04:08:26;2.45;;;0.80;;
140;SDS011;65;48.778;9.160;2023-12-22T04:11:12;2.60;;;0.57;;
140;SDS011;65;48.778;9.160;2023-12-22T04:13:57;1.65;;;0.70;;
140;SDS011;65;48.778;9.160;2023-12-22T04:16:47;0.55;;;0.43;;
140;SDS011;65;48.778;9.160;2023-12-22T04:19:33;2.28;;;0.60;;
140;SDS011;65;48.778;9.160;2023-12-22T04:22:21;2.38;;;0.60;;
140;SDS011;65;48.778;9.160;2023-12-22T04:25:08;1.25;;;0.52;;
140;SDS011;65;48.778;9.160;2023-12-22T04:27:54;3.80;;;0.43;;
140;SDS011;65;48.778;9.160;2023-12-22T04:30:40;0.45;;;0.40;;
140;SDS011;65;48.778;9.160;2023-12-22T04:33:26;1.33;;;0.50;;
140;SDS011;65;48.778;9.160;2023-12-22T04:36:12;2.60;;;0.75;;
140;SDS011;65;48.778;9.160;2023-12-22T04:39:04;1.70;;;0.43;;
140;SDS011;65;48.778;9.160;2023-12-22T04:41:59;2.13;;;0.30;;
140;SDS011;65;48.778;9.160;2023-12-22T04:44:45;2.67;;;0.50;;
140;SDS011;65;48.778;9.160;2023-12-22T04:47:31;5.93;;;0.77;;
140;SDS011;65;48.778;9.160;2023-12-22T04:50:16;1.35;;;0.35;;
140;SDS011;65;48.778;9.160;2023-12-22T04:53:02;0.65;;;0.30;;
140;SDS011;65;48.778;9.160;2023-12-22T04:55:48;1.38;;;0.43;;
140;SDS011;65;48.778;9.160;2023-12-22T04:58:33;1.75;;;0.47;;
140;SDS011;65;48.778;9.160;2023-12-22T05:01:19;4.38;;;0.77;;
140;SDS011;65;48.778;9.160;2023-12-22T05:04:06;3.20;;;0.52;;
140;SDS011;65;48.778;9.160;2023-12-22T05:06:51;4.45;;;0.57;;
140;SDS011;65;48.778;9.160;2023-12-22T05:09:37;1.02;;;0.40;;
140;SDS011;65;48.778;9.160;2023-12-22T05:12:23;2.45;;;0.70;;
140;SDS011;65;48.778;9.160;2023-12-22T05:15:10;2.55;;;0.60;;
140;SDS011;65;48.778;9.160;2023-12-22T05:17:55;5.05;;;0.82;;
140;SDS011;65;48.778;9.160;2023-12-22T05:20:41;1.45;;;0.60;;
140;SDS011;65;48.778;9.160;2023-12-22T05:23:27;3.92;;;0.65;;
140;SDS011;65;48.778;9.160;2023-12-22T05:26:16;1.20;;;0.70;;
140;SDS011;65;48.778;9.160;2023-12-22T05:29:07;3.92;;;0.77;;
140;SDS011;65;48.778;9.160;2023-12-22T05:31:58;3.33;;;0.50;;
140;SDS011;65;48.778;9.160;2023-12-22T05:34:45;5.75;;;1.48;;
140;SDS011;65;48.778;9.160;2023-12-22T05:37:32;3.30;;;0.88;;
140;SDS011;65;48.778;9.160;2023-12-22T05:40:17;2.53;;;0.90;;
140;SDS011;65;48.778;9.160;2023-12-22T05:43:11;4.68;;;1.08;;
140;SDS011;65;48.778;9.160;2023-12-22T05:45:56;0.95;;;0.65;;
140;SDS011;65;48.778;9.160;2023-12-22T05:48:42;2.65;;;1.25;;
140;SDS011;65;48.778;9.160;2023-12-22T05:54:35;1.35;;;0.57;;
140;SDS011;65;48.778;9.160;2023-12-22T05:57:24;3.90;;;0.82;;
140;SDS011;65;48.778;9.160;2023-12-22T06:00:12;4.22;;;1.15;;
140;SDS011;65;48.778;9.160;2023-12-22T06:03:01;5.30;;;0.63;;
140;SDS011;65;48.778;9.160;2023-12-22T06:05:47;3.35;;;0.75;;
140;SDS011;65;48.778;9.160;2023-12-22T06:08:33;1.10;;;0.50;;
140;SDS011;65;48.778;9.160;2023-12-22T06:11:19;2.75;;;0.85;;
140;SDS011;65;48.778;9.160;2023-12-22T06:14:05;4.15;;;1.23;;
140;SDS011;65;48.778;9.160;2023-12-22T06:16:51;3.90;;;0.73;;
140;SDS011;65;48.778;9.160;2023-12-22T06:19:39;3.67;;;1.55;;
140;SDS011;65;48.778;9.160;2023-12-22T06:22:24;2.90;;;1.23;;
140;SDS011;65;48.778;9.160;2023-12-22T06:25:10;3.45;;;1.15;;
140;SDS011;65;48.778;9.160;2023-12-22T06:27:56;1.55;;;0.80;;
140;SDS011;65;48.778;9.160;2023-12-22T06:30:41;1.80;;;0.65;;
140;SDS011;65;48.778;9.160;2023-12-22T06:33:28;2.25;;;0.70;;
140;SDS011;65;48.778;9.160;2023-12-22T06:36:24;1.58;;;0.82;;
140;SDS011;65;48.778;9.160;2023-12-22T06:39:10;3.42;;;0.90;;
140;SDS011;65;48.778;9.160;2023-12-22T06:41:56;4.88;;;0.57;;
140;SDS011;65;48.778;9.160;2023-12-22T06:44:42;6.75;;;1.80;;
140;SDS011;65;48.778;9.160;2023-12-22T06:47:29;5.18;;;1.13;;
140;SDS011;65;48.778;9.160;2023-12-22T06:50:14;6.00;;;1.10;;
140;SDS011;65;48.778;9.160;2023-12-22T06:53:00;2.30;;;0.70;;
140;SDS011;65;48.778;9.160;2023-12-22T06:55:46;5.50;;;0.88;;
140;SDS011;65;48.778;9.160;2023-12-22T06:58:31;1.08;;;0.50;;
140;SDS011;65;48.778;9.160;2023-12-22T07:01:18;1.15;;;0.52;;
140;SDS011;65;48.778;9.160;2023-12-22T07:04:07;2.78;;;0.80;;
140;SDS011;65;48.778;9.160;2023-12-22T07:06:53;2.30;;;0.77;;
140;SDS011;65;48.778;9.160;2023-12-22T07:09:39;3.58;;;0.82;;
140;SDS011;65;48.778;9.160;2023-12-22T07:12:25;5.68;;;1.02;;
140;SDS011;65;48.778;9.160;2023-12-22T07:15:10;0.55;;;0.50;;
140;SDS011;65;48.778;9.160;2023-12-22T07:17:56;1.55;;;0.57;;
140;SDS011;65;48.778;9.160;2023-12-22T07:20:42;1.52;;;0.90;;
140;SDS011;65;48.778;9.160;2023-12-22T07:23:28;3.25;;;1.10;;
140;SDS011;65;48.778;9.160;2023-12-22T07:26:13;1.50;;;0.75;;
140;SDS011;65;48.778;9.160;2023-12-22T07:28:59;4.38;;;0.90;;
140;SDS011;65;48.778;9.160;2023-12-22T07:31:45;1.42;;;0.60;;
140;SDS011;65;48.778;9.160;2023-12-22T07:34:31;0.90;;;0.50;;
140;SDS011;65;48.778;9.160;2023-12-22T07:37:16;5.95;;;0.73;;
140;SDS011;65;48.778;9.160;2023-12-22T07:40:02;4.32;;;0.60;;
140;SDS011;65;48.778;9.160;2023-12-22T07:42:48;3.58;;;1.13;;
140;SDS011;65;48.778;9.160;2023-12-22T07:45:35;0.90;;;0.52;;
140;SDS011;65;48.778;9.160;2023-12-22T07:48:23;3.85;;;0.68;;
140;SDS011;65;48.778;9.160;2023-12-22T07:51:09;5.72;;;1.00;;
140;SDS011;65;48.778;9.160;2023-12-22T07:53:55;0.90;;;0.30;;
140;SDS011;65;48.778;9.160;2023-12-22T07:56:40;6.95;;;0.75;;
140;SDS011;65;48.778;9.160;2023-12-22T07:59:26;3.80;;;0.82;;
140;SDS011;65;48.778;9.160;2023-12-22T08:02:12;5.00;;;0.60;;
140;SDS011;65;48.778;9.160;2023-12-22T08:04:57;8.25;;;0.88;;
140;SDS011;65;48.778;9.160;2023-12-22T08:07:43;4.22;;;0.70;;
140;SDS011;65;48.778;9.160;2023-12-22T08:10:29;1.42;;;0.50;;
140;SDS011;65;48.778;9.160;2023-12-22T08:13:15;8.18;;;1.10;;
140;SDS011;65;48.778;9.160;2023-12-22T08:16:03;4.40;;;0.80;;
140;SDS011;65;48.778;9.160;2023-12-22T08:18:49;4.20;;;0.82;;
140;SDS011;65;48.778;9.160;2023-12-22T08:21:36;7.30;;;0.98;;
140;SDS011;65;48.778;9.160;2023-12-22T08:24:22;2.38;;;0.32;;
140;SDS011;65;48.778;9.160;2023-12-22T08:27:08;2.22;;;0.73;;
140;SDS011;65;48.778;9.160;2023-12-22T08:29:53;1.73;;;0.60;;
140;SDS011;65;48.778;9.160;2023-12-22T08:32:39;1.85;;;0.65;;
140;SDS011;65;48.778;9.160;2023-12-22T08:35:25;3.70;;;0.80;;
140;SDS011;65;48.778;9.160;2023-12-22T08:38:11;1.35;;;0.77;;
140;SDS011;65;48.778;9.160;2023-12-22T08:40:58;1.60;;;0.88;;
140;SDS011;65;48.778;9.160;2023-12-22T08:43:58;4.82;;;1.17;;
140;SDS011;65;48.778;9.160;2023-12-22T08:46:47;11.90;;;1.35;;
140;SDS011;65;48.778;9.160;2023-12-22T08:49:33;4.93;;;1.10;;
140;SDS011;65;48.778;9.160;2023-12-22T08:52:19;4.18;;;1.05;;
140;SDS011;65;48.778;9.160;2023-12-22T08:55:05;4.07;;;1.30;;
140;SDS011;65;48.778;9.160;2023-12-22T08:57:51;1.60;;;0.80;;
140;SDS011;65;48.778;9.160;2023-12-22T09:00:37;3.42;;;0.80;;
140;SDS011;65;48.778;9.160;2023-12-22T09:03:22;8.10;;;0.98;;
140;SDS011;65;48.778;9.160;2023-12-22T09:06:09;1.80;;;0.65;;
140;SDS011;65;48.778;9.160;2023-12-22T09:08:55;4.13;;;1.00;;
140;SDS011;65;48.778;9.160;2023-12-22T09:11:40;5.30;;;1.20;;
140;SDS011;65;48.778;9.160;2023-12-22T09:14:26;2.47;;;0.80;;
140;SDS011;65;48.778;9.160;2023-12-22T09:17:12;5.32;;;1.60;;
140;SDS011;65;48.778;9.160;2023-12-22T09:19:58;2.80;;;0.80;;
140;SDS011;65;48.778;9.160;2023-12-22T09:22:43;4.45;;;1.10;;
140;SDS011;65;48.778;9.160;2023-12-22T09:25:29;3.40;;;0.80;;
140;SDS011;65;48.778;9.160;2023-12-22T09:28:15;3.72;;;1.17;;
140;SDS011;65;48.778;9.160;2023-12-22T09:31:01;18.10;;;1.75;;
140;SDS011;65;48.778;9.160;2023-12-22T09:33:47;7.13;;;1.23;;
140;SDS011;65;48.778;9.160;2023-12-22T09:36:34;6.32;;;0.98;;
140;SDS011;65;48.778;9.160;2023-12-22T09:39:19;6.20;;;1.40;;
140;SDS011;65;48.778;9.160;2023-12-22T09:42:05;6.03;;;1.33;;
140;SDS011;65;48.778;9.160;2023-12-22T09:44:53;2.83;;;1.00;;
140;SDS011;65;48.778;9.160;2023-12-22T09:47:41;3.60;;;1.45;;
140;SDS011;65;48.778;9.160;2023-12-22T09:50:28;7.68;;;1.27;;
140;SDS011;65;48.778;9.160;2023-12-22T09:53:14;4.60;;;1.52;;
140;SDS011;65;48.778;9.160;2023-12-22T09:56:00;4.50;;;1.27;;
140;SDS011;65;48.778;9.160;2023-12-22T09:58:46;5.35;;;1.10;;
140;SDS011;65;48.778;9.160;2023-12-22T10:01:34;7.43;;;1.55;;
140;SDS011;65;48.778;9.160;2023-12-22T10:04:20;8.85;;;1.60;;
140;SDS011;65;48.778;9.160;2023-12-22T10:07:06;6.57;;;1.48;;
140;SDS011;65;48.778;9.160;2023-12-22T10:09:54;6.43;;;1.77;;
140;SDS011;65;48.778;9.160;2023-12-22T10:12:41;3.00;;;1.23;;
140;SDS011;65;48.778;9.160;2023-12-22T10:15:30;12.13;;;1.75;;
140;SDS011;65;48.778;9.160;2023-12-22T10:18:16;8.85;;;1.65;;
140;SDS011;65;48.778;9.160;2023-12-22T10:21:02;6.82;;;1.40;;
140;SDS011;65;48.778;9.160;2023-12-22T10:23:48;12.48;;;2.05;;
140;SDS011;65;48.778;9.160;2023-12-22T10:26:34;9.38;;;1.27;;
140;SDS011;65;48.778;9.160;2023-12-22T10:29:20;3.85;;;1.38;;
140;SDS011;65;48.778;9.160;2023-12-22T10:32:06;5.53;;;1.33;;
140;SDS011;65;48.778;9.160;2023-12-22T10:34:52;7.68;;;1.42;;
140;SDS011;65;48.778;9.160;2023-12-22T10:37:38;3.67;;;1.10;;
140;SDS011;65;48.778;9.160;2023-12-22T10:40:24;7.25;;;1.75;;
140;SDS011;65;48.778;9.160;2023-12-22T10:43:10;9.45;;;2.38;;
140;SDS011;65;48.778;9.160;2023-12-22T10:45:56;5.43;;;1.45;;
140;SDS011;65;48.778;9.160;2023-12-22T10:48:42;3.13;;;1.20;;
140;SDS011;65;48.778;9.160;2023-12-22T10:51:29;6.70;;;1.30;;
140;SDS011;65;48.778;9.160;2023-12-22T10:54:18;4.00;;;1.38;;
140;SDS011;65;48.778;9.160;2023-12-22T10:57:04;5.53;;;1.20;;
140;SDS011;65;48.778;9.160;2023-12-22T10:59:50;4.47;;;1.15;;
140;SDS011;65;48.778;9.160;2023-12-22T11:02:36;4.28;;;1.05;;
140;SDS011;65;48.778;9.160;2023-12-22T11:05:27;5.55;;;0.90;;
140;SDS011;65;48.778;9.160;2023-12-22T11:08:15;5.22;;;1.35;;
140;SDS011;65;48.778;9.160;2023-12-22T11:11:03;3.40;;;0.88;;
140;SDS011;65;48.778;9.160;2023-12-22T11:14:03;2.03;;;0.63;;
140;SDS011;65;48.778;9.160;2023-12-22T11:16:49;2.05;;;0.43;;
140;SDS011;65;48.778;9.160;2023-12-22T11:19:37;3.20;;;1.08;;
140;SDS011;65;48.778;9.160;2023-12-22T11:22:25;2.83;;;0.73;;
140;SDS011;65;48.778;9.160;2023-12-22T11:25:12;2.60;;;0.70;;
140;SDS011;65;48.778;9.160;2023-12-22T11:28:00;2.45;;;0.60;;
140;SDS011;65;48.778;9.160;2023-12-22T11:30:49;4.25;;;1.13;;
140;SDS011;65;48.778;9.160;2023-12-22T11:33:38;4.43;;;0.50;;
140;SDS011;65;48.778;9.160;2023-12-22T11:36:28;3.00;;;0.52;;
140;SDS011;65;48.778;9.160;2023-12-22T11:39:14;3.25;;;0.80;;
140;SDS011;65;48.778;9.160;2023-12-22T11:42:00;1.88;;;0.90;;
140;SDS011;65;48.778;9.160;2023-12-22T11:44:49;1.25;;;0.65;;
140;SDS011;65;48.778;9.160;2023-12-22T11:47:35;1.45;;;0.52;;
140;SDS011;65;48.778;9.160;2023-12-22T11:50:29;3.92;;;0.43;;
140;SDS011;65;48.778;9.160;2023-12-22T11:53:24;5.22;;;1.13;;
140;SDS011;65;48.778;9.160;2023-12-22T11:56:15;2.92;;;0.60;;
140;SDS011;65;48.778;9.160;2023-12-22T11:59:03;1.08;;;0.40;;
140;SDS011;65;48.778;9.160;2023-12-22T12:01:54;0.30;;;0.25;;
140;SDS011;65;48.778;9.160;2023-12-22T12:04:41;0.20;;;0.20;;
140;SDS011;65;48.778;9.160;2023-12-22T12:07:37;0.43;;;0.40;;
140;SDS011;65;48.778;9.160;2023-12-22T12:13:21;2.78;;;0.40;;
140;SDS011;65;48.778;9.160;2023-12-22T12:16:11;0.75;;;0.40;;
140;SDS011;65;48.778;9.160;2023-12-22T12:19:07;1.75;;;0.57;;
140;SDS011;65;48.778;9.160;2023-12-22T12:21:54;1.50;;;0.63;;
140;SDS011;65;48.778;9.160;2023-12-22T12:24:41;0.43;;;0.38;;
140;SDS011;65;48.778;9.160;2023-12-22T12:27:30;1.23;;;0.43;;
140;SDS011;65;48.778;9.160;2023-12-22T12:30:19;1.88;;;1.02;;
140;SDS011;65;48.778;9.160;2023-12-22T12:33:06;1.42;;;0.70;;
140;SDS011;65;48.778;9.160;2023-12-22T12:35:55;1.00;;;0.52;;
140;SDS011;65;48.778;9.160;2023-12-22T12:38:48;0.28;;;0.28;;
140;SDS011;65;48.778;9.160;2023-12-22T12:41:41;1.08;;;0.20;;
140;SDS011;65;48.778;9.160;2023-12-22T12:44:31;0.30;;;0.30;;
140;SDS011;65;48.778;9.160;2023-12-22T12:47:18;3.30;;;0.77;;
140;SDS011;65;48.778;9.160;2023-12-22T12:50:05;0.85;;;0.40;;
140;SDS011;65;48.778;9.160;2023-12-22T12:52:51;0.65;;;0.38;;
140;SDS011;65;48.778;9.160;2023-12-22T12:55:39;0.45;;;0.40;;
140;SDS011;65;48.778;9.160;2023-12-22T12:58:28;0.13;;;0.13;;
140;SDS011;65;48.778;9.160;2023-12-22T13:01:15;1.38;;;0.45;;
140;SDS011;65;48.778;9.160;2023-12-22T13:04:02;1.23;;;0.60;;
140;SDS011;65;48.778;9.160;2023-12-22T13:06:49;0.85;;;0.45;;
140;SDS011;65;48.778;9.160;2023-12-22T13:09:36;0.45;;;0.28;;
140;SDS011;65;48.778;9.160;2023-12-22T13:12:24;0.43;;;0.20;;
140;SDS011;65;48.778;9.160;2023-12-22T13:15:11;5.70;;;0.68;;
140;SDS011;65;48.778;9.160;2023-12-22T13:17:57;0.43;;;0.25;;
140;SDS011;65;48.778;9.160;2023-12-22T13:20:43;0.47;;;0.30;;
140;SDS011;65;48.778;9.160;2023-12-22T13:23:29;1.38;;;0.45;;
140;SDS011;65;48.778;9.160;2023-12-22T13:26:21;0.17;;;0.17;;
140;SDS011;65;48.778;9.160;2023-12-22T13:29:07;0.28;;;0.15;;
140;SDS011;65;48.778;9.160;2023-12-22T13:31:54;0.50;;;0.25;;
140;SDS011;65;48.778;9.160;2023-12-22T13:34:45;0.57;;;0.30;;
140;SDS011;65;48.778;9.160;2023-12-22T13:37:33;0.38;;;0.20;;
140;SDS011;65;48.778;9.160;2023-12-22T13:40:18;0.38;;;0.20;;
140;SDS011;65;48.778;9.160;2023-12-22T13:43:04;0.10;;;0.10;;
140;SDS011;65;48.778;9.160;2023-12-22T13:45:52;0.00;;;0.00;;
140;SDS011;65;48.778;9.160;2023-12-22T13:48:38;0.40;;;0.30;;
140;SDS011;65;48.778;9.160;2023-12-22T13:51:24;0.32;;;0.20;;
140;SDS011;65;48.778;9.160;2023-12-22T13:54:10;0.10;;;0.05;;
140;SDS011;65;48.778;9.160;2023-12-22T13:56:56;0.22;;;0.10;;
140;SDS011;65;48.778;9.160;2023-12-22T13:59:42;0.10;;;0.10;;
140;SDS011;65;48.778;9.160;2023-12-22T14:02:28;0.82;;;0.40;;
140;SDS011;65;48.778;9.160;2023-12-22T14:05:14;0.10;;;0.10;;
140;SDS011;65;48.778;9.160;2023-12-22T14:08:01;0.40;;;0.20;;
140;SDS011;65;48.778;9.160;2023-12-22T14:10:47;0.10;;;0.10;;
140;SDS011;65;48.778;9.160;2023-12-22T14:13:34;0.20;;;0.10;;
140;SDS011;65;48.778;9.160;2023-12-22T14:16:24;0.20;;;0.17;;
140;SDS011;65;48.778;9.160;2023-12-22T14:19:10;0.50;;;0.22;;
140;SDS011;65;48.778;9.160;2023-12-22T14:21:55;0.00;;;0.00;;
140;SDS011;65;48.778;9.160;2023-12-22T14:24:41;0.35;;;0.17;;
140;SDS011;65;48.778;9.160;2023-12-22T14:27:27;0.77;;;0.47;;
140;SDS011;65;48.778;9.160;2023-12-22T14:30:13;0.85;;;0.40;;
140;SDS011;65;48.778;9.160;2023-12-22T14:32:59;0.10;;;0.10;;
140;SDS011;65;48.778;9.160;2023-12-22T14:35:45;0.30;;;0.30;;
140;SDS011;65;48.778;9.160;2023-12-22T14:38:31;0.13;;;0.13;;
140;SDS011;65;48.778;9.160;2023-12-22T14:41:16;0.43;;;0.30;;
140;SDS011;65;48.778;9.160;2023-12-22T14:44:02;0.17;;;0.17;;
140;SDS011;65;48.778;9.160;2023-12-22T14:46:48;0.85;;;0.30;;
140;SDS011;65;48.778;9.160;2023-12-22T14:49:34;0.80;;;0.13;;
140;SDS011;65;48.778;9.160;2023-12-22T14:52:19;0.63;;;0.30;;
140;SDS011;65;48.778;9.160;2023-12-22T14:55:05;0.20;;;0.10;;
140;SDS011;65;48.778;9.160;2023-12-22T14:57:51;0.47;;;0.43;;
140;SDS011;65;48.778;9.160;2023-12-22T15:00:37;0.50;;;0.22;;
140;SDS011;65;48.778;9.160;2023-12-22T15:03:23;0.20;;;0.20;;
140;SDS011;65;48.778;9.160;2023-12-22T15:06:08;0.20;;;0.20;;
140;SDS011;65;48.778;9.160;2023-12-22T15:08:54;0.40;;;0.32;;
140;SDS011;65;48.778;9.160;2023-12-22T15:11:41;0.70;;;0.25;;
140;SDS011;65;48.778;9.160;2023-12-22T15:14:28;0.80;;;0.40;;
140;SDS011;65;48.778;9.160;2023-12-22T15:17:13;0.22;;;0.22;;
140;SDS011;65;48.778;9.160;2023-12-22T15:20:00;0.38;;;0.38;;
140;SDS011;65;48.778;9.160;2023-12-22T15:22:46;0.20;;;0.20;;
140;SDS011;65;48.778;9.160;2023-12-22T15:25:31;0.63;;;0.40;;
140;SDS011;65;48.778;9.160;2023-12-22T15:28:17;0.20;;;0.20;;
140;SDS011;65;48.778;9.160;2023-12-22T15:31:07;0.20;;;0.20;;
140;SDS011;65;48.778;9.160;2023-12-22T15:33:53;2.17;;;0.10;;
140;SDS011;65;48.778;9.160;2023-12-22T15:36:39;0.40;;;0.30;;
140;SDS011;65;48.778;9.160;2023-12-22T15:39:25;0.30;;;0.20;;
140;SDS011;65;48.778;9.160;2023-12-22T15:42:10;0.65;;;0.30;;
140;SDS011;65;48.778;9.160;2023-12-22T15:44:57;0.20;;;0.20;;
140;SDS011;65;48.778;9.160;2023-12-22T15:47:43;0.30;;;0.20;;
140;SDS011;65;48.778;9.160;2023-12-22T15:50:28;2.50;;;0.43;;
140;SDS011;65;48.778;9.160;2023-12-22T15:53:14;0.20;;;0.20;;
140;SDS011;65;48.778;9.160;2023-12-22T15:56:07;0.30;;;0.30;;
140;SDS011;65;48.778;9.160;2023-12-22T15:58:54;0.47;;;0.30;;
140;SDS011;65;48.778;9.160;2023-12-22T16:01:43;0.77;;;0.28;;
140;SDS011;65;48.778;9.160;2023-12-22T16:04:30;0.65;;;0.30;;
140;SDS011;65;48.778;9.160;2023-12-22T16:07:17;1.35;;;0.25;;
140;SDS011;65;48.778;9.160;2023-12-22T16:10:02;0.10;;;0.10;;
140;SDS011;65;48.778;9.160;2023-12-22T16:12:49;1.00;;;0.52;;
140;SDS011;65;48.778;9.160;2023-12-22T16:15:34;2.25;;;0.35;;
140;SDS011;65;48.778;9.160;2023-12-22T16:18:20;0.20;;;0.08;;
140;SDS011;65;48.778;9.160;2023-12-22T16:21:06;0.60;;;0.52;;
140;SDS011;65;48.778;9.160;2023-12-22T16:23:51;0.40;;;0.17;;
140;SDS011;65;48.778;9.160;2023-12-22T16:26:37;0.10;;;0.10;;
140;SDS011;65;48.778;9.160;2023-12-22T16:29:23;0.98;;;0.40;;
140;SDS011;65;48.778;9.160;2023-12-22T16:32:09;0.50;;;0.28;;
140;SDS011;65;48.778;9.160;2023-12-22T16:34:56;0.60;;;0.38;;
140;SDS011;65;48.778;9.160;2023-12-22T16:37:43;0.20;;;0.20;;
140;SDS011;65;48.778;9.160;2023-12-22T16:40:30;0.57;;;0.43;;
140;SDS011;65;48.778;9.160;2023-12-22T16:43:15;1.33;;;0.70;;
140;SDS011;65;48.778;9.160;2023-12-22T16:46:04;0.20;;;0.15;;
140;SDS011;65;48.778;9.160;2023-12-22T16:48:52;0.43;;;0.35;;
140;SDS011;65;48.778;9.160;2023-12-22T16:51:38;0.82;;;0.40;;
140;SDS011;65;48.778;9.160;2023-12-22T16:54:23;0.20;;;0.20;;
140;SDS011;65;48.778;9.160;2023-12-22T16:57:09;0.88;;;0.32;;
140;SDS011;65;48.778;9.160;2023-12-22T16:59:55;0.45;;;0.40;;
140;SDS011;65;48.778;9.160;2023-12-22T17:02:41;0.25;;;0.20;;
140;SDS011;65;48.778;9.160;2023-12-22T17:05:27;0.40;;;0.40;;
140;SDS011;65;48.778;9.160;2023-12-22T17:08:12;0.10;;;0.10;;
140;SDS011;65;48.778;9.160;2023-12-22T17:10:58;0.43;;;0.20;;
140;SDS011;65;48.778;9.160;2023-12-22T17:13:44;0.15;;;0.10;;
140;SDS011;65;48.778;9.160;2023-12-22T17:16:30;0.22;;;0.22;;
140;SDS011;65;48.778;9.160;2023-12-22T17:19:16;0.15;;;0.15;;
140;SDS011;65;48.778;9.160;2023-12-22T17:22:01;0.77;;;0.30;;
140;SDS011;65;48.778;9.160;2023-12-22T17:24:48;0.30;;;0.30;;
140;SDS011;65;48.778;9.160;2023-12-22T17:27:33;0.70;;;0.45;;
140;SDS011;65;48.778;9.160;2023-12-22T17:30:19;0.93;;;0.60;;
140;SDS011;65;48.778;9.160;2023-12-22T17:33:07;0.50;;;0.38;;
140;SDS011;65;48.778;9.160;2023-12-22T17:35:52;0.20;;;0.20;;
140;SDS011;65;48.778;9.160;2023-12-22T17:38:38;0.20;;;0.20;;
140;SDS011;65;48.778;9.160;2023-12-22T17:41:24;0.55;;;0.55;;
140;SDS011;65;48.778;9.160;2023-12-22T17:44:10;0.30;;;0.30;;
140;SDS011;65;48.778;9.160;2023-12-22T17:46:56;1.77;;;0.50;;
140;SDS011;65;48.778;9.160;2023-12-22T17:49:47;0.55;;;0.40;;
140;SDS011;65;48.778;9.160;2023-12-22T17:52:33;0.28;;;0.28;;
140;SDS011;65;48.778;9.160;2023-12-22T17:55:19;0.70;;;0.50;;
140;SDS011;65;48.778;9.160;2023-12-22T17:58:05;1.10;;;0.32;;
140;SDS011;65;48.778;9.160;2023-12-22T18:00:51;0.50;;;0.28;;
140;SDS011;65;48.778;9.160;2023-12-22T18:03:37;0.52;;;0.40;;
140;SDS011;65;48.778;9.160;2023-12-22T18:06:22;0.68;;;0.30;;
140;SDS011;65;48.778;9.160;2023-12-22T18:09:08;1.13;;;0.60;;
140;SDS011;65;48.778;9.160;2023-12-22T18:11:54;2.33;;;0.88;;
140;SDS011;65;48.778;9.160;2023-12-22T18:14:40;1.70;;;0.63;;